Aérodrome :
LOGIN :

S'inscrire | Disclaimer

   EN    FR    IT 

 










Légende :    VFR   VFR Marginal   IFR   IFR Intensif   IFR Très Intensif
Visi : 
Plafond : 
>= 8 km
>= 3000ft
5 à 8 km
1000 à 3000 ft
1500m à 5 km
500 à 1000 ft
800 à 1500m
200 à 500 ft
< 800m
< 200 ft
Symboles :   Orages  Brouillard  Fortes neiges  Fortes précipitations  Vent > 20 kt
SIGMETs :   Divers  Orages  Givrage  Turbulence  Onde Orograph.  Cendres Volcan.






- Altitude de l'aérodrome : 1504 ft
- Code IATA : PNA


LEPP - Noain Pamplona

DERNIER METAR :
  • 032000Z AUTO 34004KT CAVOK 16/13 Q1008

METARs EXPIRÉS :
  • 031930Z AUTO 35005KT CAVOK 16/13 Q1008
  • 031900Z AUTO 34006KT CAVOK 16/14 Q1008
  • 031830Z AUTO 33006KT 9999 FEW045 16/13 Q1008
  • 031800Z AUTO 31004KT 270V340 CAVOK 17/15 Q1008
  • 031730Z AUTO 31005KT 270V340 9999 -RA FEW045 SCT056 17/15 Q1008

TAF TAF LEPP
Valide du 03 à 15h jusqu'au 04 à 15h UTC


031400Z 0315/0415 VRB04KT 9999 SCT015 BKN040 TX19/0415Z TN14/0405Z
TEMPO 0315/0318 3000 RA SHRA SCT030TCU
PROB30
TEMPO 0315/0318 TS SCT030CB
TEMPO 0315/0324 35010KT
PROB40
TEMPO 0402/0415 RA SHRA SCT030TCU
PROB30
TEMPO 0402/0415 TS SHGR SCT030CB
TEMPO 0409/0415 33015G29KT



MET'MAP, la Météo Aéronautique d'un coup d'oeil ! - Copyright ORBIFLY Décembre 2007 - Disclaimer

ORBIFLY MET'MAP TEAM :

Programmation & Développement : Alexandra Zaïnal
Sur une idée originale de : Baudouin d'Aumeries
Assistance à la programmation : Marc-Olivier Méhu
Soutien technique & logistique : Manuel Goepfert

Contact : metmap@orbifly.com




SOURCES & CREDITS :

   NOAA